Time;durP1;ratioP1;P1;durP2;ratioP2;P2;SDS_P1;SDS_P2;PMS_P1;PMS_P2;Temp;Humidity;BMP_temperature;BMP_pressure;BME280_temperature;BME280_humidity;BME280_pressure;Samples;Min_cycle;Max_cycle;Signal;HPM_P1;HPM_P2
2023/01/25 00:00:15;;;;;;;;;;;19.90;41.60;;;;;;6089118;29;19931;-57
2023/01/25 00:06:41;;;;;;;;;;;20.10;38.80;;;;;;6444930;23;19908;-58
2023/01/25 00:09:42;;;;;;;;;;;19.80;41.40;;;;;;6088715;29;19959;-58
2023/01/25 00:16:14;;;;;;;;;;;20.00;38.70;;;;;;6852829;23;19908;-58
2023/01/25 00:19:16;;;;;;;;;;;20.00;41.60;;;;;;6292311;23;20824;-55
2023/01/25 00:22:22;;;;;;;;;;;19.90;40.60;;;;;;6248115;23;20618;31
2023/01/25 00:25:24;;;;;;;;;;;19.90;38.80;;;;;;6139078;24;19908;-58
2023/01/25 00:28:25;;;;;;;;;;;19.90;40.50;;;;;;6087677;29;19968;-58
2023/01/25 00:34:51;;;;;;;;;;;19.70;39.00;;;;;;6942053;23;19974;-57
2023/01/25 00:37:53;;;;;;;;;;;19.70;41.60;;;;;;6087453;29;19923;-57
2023/01/25 00:40:56;;;;;;;;;;;19.40;41.60;;;;;;6086746;29;19930;-58
2023/01/25 00:43:58;;;;;;;;;;;19.40;41.40;;;;;;6085773;29;19923;-58
2023/01/25 00:46:59;;;;;;;;;;;20.30;41.90;;;;;;6225222;23;19922;-55
2023/01/25 00:50:01;;;;;;;;;;;19.90;40.70;;;;;;6658390;24;19911;-58
2023/01/25 00:53:03;;;;;;;;;;;19.40;41.30;;;;;;6087439;29;19908;-58
2023/01/25 00:59:28;;;;;;;;;;;19.90;38.90;;;;;;6209561;23;19924;-58
2023/01/25 01:02:30;;;;;;;;;;;19.70;40.10;;;;;;6040277;29;19928;-58
2023/01/25 01:05:35;;;;;;;;;;;19.80;41.60;;;;;;6041367;29;19943;-58
2023/01/25 01:08:38;;;;;;;;;;;19.80;41.60;;;;;;6040107;29;20309;-58
2023/01/25 01:11:40;;;;;;;;;;;19.30;41.30;;;;;;6040961;29;19909;-59
2023/01/25 01:22:51;;;;;;;;;;;19.90;38.70;;;;;;6058847;29;19919;-58
2023/01/25 01:25:52;;;;;;;;;;;19.30;41.30;;;;;;6046117;29;19924;-58
2023/01/25 01:28:54;;;;;;;;;;;19.50;41.50;;;;;;6061729;29;19908;-58
2023/01/25 01:31:55;;;;;;;;;;;19.50;41.60;;;;;;6050805;29;20373;-58
2023/01/25 01:34:58;;;;;;;;;;;19.40;41.40;;;;;;6053976;29;20297;-58
2023/01/25 01:38:00;;;;;;;;;;;19.40;41.50;;;;;;6046336;29;20305;-58
2023/01/25 01:41:02;;;;;;;;;;;20.20;41.80;;;;;;6040981;29;19959;-58
2023/01/25 01:44:04;;;;;;;;;;;19.50;41.60;;;;;;6039891;29;19931;-58
2023/01/25 01:47:07;;;;;;;;;;;19.30;41.40;;;;;;6045310;29;19931;-58
2023/01/25 01:50:16;;;;;;;;;;;20.10;42.00;;;;;;6046481;29;20391;-58
2023/01/25 01:53:17;;;;;;;;;;;19.30;41.20;;;;;;6044777;29;20314;-58
2023/01/25 01:56:21;;;;;;;;;;;19.50;41.40;;;;;;6046099;29;19946;-58
2023/01/25 01:59:27;;;;;;;;;;;19.50;41.30;;;;;;6045962;29;19959;-58
2023/01/25 02:02:28;;;;;;;;;;;19.70;41.50;;;;;;6037930;29;19931;-58
2023/01/25 02:05:31;;;;;;;;;;;20.10;41.80;;;;;;6039189;29;19924;-58
2023/01/25 02:08:33;;;;;;;;;;;19.50;41.40;;;;;;6026617;29;19931;-58
2023/01/25 02:11:37;;;;;;;;;;;19.40;41.20;;;;;;6046224;29;19924;-59
2023/01/25 02:14:39;;;;;;;;;;;19.60;41.50;;;;;;6056521;29;19924;-59
2023/01/25 02:17:41;;;;;;;;;;;19.40;41.20;;;;;;6060299;29;19924;-58
2023/01/25 02:20:46;;;;;;;;;;;19.80;41.50;;;;;;6058918;29;20337;-58
2023/01/25 02:23:52;;;;;;;;;;;19.40;41.20;;;;;;6056852;29;19946;-59
2023/01/25 02:26:54;;;;;;;;;;;19.30;41.20;;;;;;6056907;29;19931;-57
2023/01/25 02:29:55;;;;;;;;;;;19.40;41.50;;;;;;6052678;29;19934;-58
2023/01/25 02:32:57;;;;;;;;;;;19.50;41.40;;;;;;6048133;29;20274;-57
2023/01/25 02:36:00;;;;;;;;;;;19.40;41.50;;;;;;6049622;29;19973;-58
2023/01/25 02:39:02;;;;;;;;;;;19.60;41.40;;;;;;6039493;29;19924;-58
2023/01/25 02:42:05;;;;;;;;;;;19.40;41.40;;;;;;6034242;29;19924;-58
2023/01/25 02:45:09;;;;;;;;;;;19.50;41.50;;;;;;6056078;29;19935;-58
2023/01/25 02:51:36;;;;;;;;;;;19.50;39.00;;;;;;6932079;23;19924;-58
2023/01/25 02:54:37;;;;;;;;;;;19.60;41.70;;;;;;6061768;29;20380;-58
2023/01/25 02:57:41;;;;;;;;;;;19.30;41.80;;;;;;6063718;29;19948;-58
2023/01/25 03:00:42;;;;;;;;;;;19.50;41.80;;;;;;6065991;29;19983;-58
2023/01/25 03:03:45;;;;;;;;;;;19.40;41.80;;;;;;6069748;29;19924;-58
2023/01/25 03:06:47;;;;;;;;;;;19.40;41.60;;;;;;6069712;29;20344;-58
2023/01/25 03:09:48;;;;;;;;;;;19.90;42.00;;;;;;6068752;29;19956;-56
2023/01/25 03:12:50;;;;;;;;;;;19.80;41.90;;;;;;6068743;29;19975;-58
2023/01/25 03:15:57;;;;;;;;;;;19.70;41.90;;;;;;6068717;29;19924;-57
2023/01/25 03:18:58;;;;;;;;;;;19.40;41.60;;;;;;6068766;29;19931;-58
2023/01/25 03:22:00;;;;;;;;;;;20.00;42.00;;;;;;6069023;29;19995;-58
2023/01/25 03:25:02;;;;;;;;;;;19.50;41.80;;;;;;6069532;29;19930;-58
2023/01/25 03:28:04;;;;;;;;;;;19.20;41.60;;;;;;6069474;29;20364;-58
2023/01/25 03:31:06;;;;;;;;;;;19.60;41.90;;;;;;6068818;29;20013;-57
2023/01/25 03:34:08;;;;;;;;;;;19.30;41.60;;;;;;6051926;29;19928;-58
2023/01/25 03:37:13;;;;;;;;;;;19.50;41.90;;;;;;6068379;29;19935;-55
2023/01/25 03:40:16;;;;;;;;;;;20.10;42.00;;;;;;6068223;29;19924;-58
2023/01/25 03:43:23;;;;;;;;;;;19.40;41.70;;;;;;6067107;29;19930;-58
2023/01/25 03:46:26;;;;;;;;;;;19.30;41.80;;;;;;6066746;29;19924;-58
2023/01/25 03:49:28;;;;;;;;;;;19.60;41.90;;;;;;6068487;29;19931;-58
2023/01/25 03:52:37;;;;;;;;;;;19.70;42.10;;;;;;6069486;29;19931;-58
2023/01/25 03:55:40;;;;;;;;;;;19.60;41.70;;;;;;6069530;29;19931;-58
2023/01/25 03:58:42;;;;;;;;;;;19.30;41.80;;;;;;6070245;29;19931;-57
2023/01/25 04:10:55;;;;;;;;;;;19.80;39.00;;;;;;6068745;29;19916;-58
2023/01/25 04:13:57;;;;;;;;;;;19.40;41.80;;;;;;6050421;29;20006;-58
2023/01/25 04:17:09;;;;;;;;;;;19.30;41.70;;;;;;6067665;29;19966;-58
2023/01/25 04:20:15;;;;;;;;;;;19.30;41.90;;;;;;6067218;29;20018;-58
2023/01/25 04:23:20;;;;;;;;;;;19.50;41.90;;;;;;6068086;29;19998;-58
2023/01/25 04:26:21;;;;;;;;;;;19.90;42.10;;;;;;6049255;29;19923;-58
2023/01/25 04:29:29;;;;;;;;;;;19.30;41.70;;;;;;6065495;29;19924;-58
2023/01/25 04:32:42;;;;;;;;;;;19.30;41.80;;;;;;6065991;29;20015;-58
2023/01/25 04:35:54;;;;;;;;;;;19.10;41.70;;;;;;6064415;29;19924;-58
2023/01/25 04:38:56;;;;;;;;;;;19.20;41.80;;;;;;6063815;29;19924;-58
2023/01/25 04:41:58;;;;;;;;;;;19.50;42.00;;;;;;6064399;29;19924;-58
2023/01/25 04:45:00;;;;;;;;;;;19.70;42.00;;;;;;6065437;29;20042;-58
2023/01/25 04:48:02;;;;;;;;;;;19.20;41.70;;;;;;6064431;29;19924;-58
2023/01/25 04:51:04;;;;;;;;;;;19.60;41.90;;;;;;6065373;29;19927;-58
2023/01/25 04:54:07;;;;;;;;;;;19.20;41.50;;;;;;6066063;29;19928;-58
2023/01/25 04:57:09;;;;;;;;;;;19.70;42.10;;;;;;6068327;29;19924;-58
2023/01/25 05:00:12;;;;;;;;;;;19.20;41.80;;;;;;6068937;29;19923;-58
2023/01/25 05:03:14;;;;;;;;;;;19.30;41.80;;;;;;6068846;29;19923;-58
2023/01/25 05:06:17;;;;;;;;;;;19.20;41.70;;;;;;6068278;29;20022;-58
2023/01/25 05:09:18;;;;;;;;;;;19.20;42.30;;;;;;6051994;29;19927;-58
2023/01/25 05:12:21;;;;;;;;;;;19.20;41.80;;;;;;6070368;29;19924;-58
2023/01/25 05:15:28;;;;;;;;;;;20.20;42.30;;;;;;6070672;29;19930;-58
2023/01/25 05:18:30;;;;;;;;;;;19.20;41.80;;;;;;6070691;29;19931;-58
2023/01/25 05:21:58;;;;;;;;;;;19.30;41.80;;;;;;6070052;29;19979;-58
2023/01/25 05:26:59;;;;;;;;;;;19.30;41.70;;;;;;6069862;29;19924;-58
2023/01/25 05:37:39;;;;;;;;;;;19.70;39.20;;;;;;6070472;29;19991;-58
2023/01/25 05:40:47;;;;;;;;;;;19.30;41.90;;;;;;6067250;29;19939;-58
2023/01/25 05:43:49;;;;;;;;;;;19.90;42.30;;;;;;6057568;29;19927;-58
2023/01/25 05:46:51;;;;;;;;;;;19.10;41.70;;;;;;6057235;29;19924;-57
2023/01/25 05:49:52;;;;;;;;;;;19.20;41.80;;;;;;6056971;29;19924;-58
2023/01/25 05:53:03;;;;;;;;;;;19.10;41.80;;;;;;6057026;29;20281;-58
2023/01/25 05:56:05;;;;;;;;;;;19.70;42.20;;;;;;6056948;29;19928;-58
2023/01/25 05:59:06;;;;;;;;;;;19.40;41.70;;;;;;6056986;29;19952;-58
2023/01/25 06:02:08;;;;;;;;;;;19.30;42.00;;;;;;6056919;29;19928;-58
2023/01/25 06:05:09;;;;;;;;;;;19.40;42.00;;;;;;6056714;29;19956;-58
2023/01/25 06:08:12;;;;;;;;;;;19.80;41.90;;;;;;6056947;29;19924;-58
2023/01/25 06:11:19;;;;;;;;;;;19.40;41.90;;;;;;6056518;29;20360;-58
2023/01/25 06:14:22;;;;;;;;;;;19.40;41.80;;;;;;6056610;29;20372;-58
2023/01/25 06:17:24;;;;;;;;;;;19.50;41.80;;;;;;6056922;29;19924;-56
2023/01/25 06:20:32;;;;;;;;;;;19.60;42.10;;;;;;6056659;29;19930;-57
2023/01/25 06:27:54;;;;;;;;;;;19.60;39.00;;;;;;6056634;29;19924;-58
2023/01/25 06:35:23;;;;;;;;;;;19.80;39.20;;;;;;6061712;29;19912;-57
2023/01/25 06:38:35;;;;;;;;;;;19.30;41.90;;;;;;6066396;29;20402;-58
2023/01/25 06:41:37;;;;;;;;;;;19.70;41.30;;;;;;6053318;29;20007;-58
2023/01/25 06:44:39;;;;;;;;;;;19.40;41.80;;;;;;6077778;29;19930;-58
2023/01/25 06:47:40;;;;;;;;;;;20.10;42.30;;;;;;6081859;29;19923;-58
2023/01/25 06:50:41;;;;;;;;;;;19.30;41.90;;;;;;6082575;29;19941;-58
2023/01/25 06:53:44;;;;;;;;;;;19.90;42.20;;;;;;6080823;29;20281;-58
2023/01/25 06:56:45;;;;;;;;;;;19.30;41.90;;;;;;6057639;29;19963;-58
2023/01/25 06:59:47;;;;;;;;;;;20.30;42.50;;;;;;6061511;29;20018;-59
2023/01/25 07:02:48;;;;;;;;;;;19.30;41.90;;;;;;6060409;29;20330;-59
2023/01/25 07:05:50;;;;;;;;;;;19.70;42.20;;;;;;6060306;29;19924;-58
2023/01/25 07:08:51;;;;;;;;;;;19.90;42.10;;;;;;6059790;29;19923;-58
2023/01/25 07:11:53;;;;;;;;;;;20.30;42.50;;;;;;6043221;29;19955;-58
2023/01/25 07:14:54;;;;;;;;;;;19.70;42.00;;;;;;6059938;29;19976;-59
2023/01/25 07:17:56;;;;;;;;;;;19.40;42.00;;;;;;6060505;29;19923;-59
2023/01/25 07:21:07;;;;;;;;;;;19.40;41.70;;;;;;6061450;29;19963;-59
2023/01/25 07:24:11;;;;;;;;;;;19.90;42.00;;;;;;6060354;29;19928;-59
2023/01/25 07:27:13;;;;;;;;;;;19.40;41.60;;;;;;6061054;29;19930;-59
2023/01/25 07:30:16;;;;;;;;;;;20.10;42.10;;;;;;6060174;29;19992;-59
2023/01/25 07:33:18;;;;;;;;;;;19.60;41.70;;;;;;6059176;29;19928;-59
2023/01/25 07:36:20;;;;;;;;;;;20.10;41.80;;;;;;6059501;29;19923;-59
2023/01/25 07:39:21;;;;;;;;;;;19.90;41.60;;;;;;6059441;29;19924;-58
2023/01/25 07:42:22;;;;;;;;;;;20.10;41.70;;;;;;6058479;29;19923;-58
2023/01/25 07:45:29;;;;;;;;;;;20.00;41.40;;;;;;6059385;29;20022;-59
2023/01/25 07:48:32;;;;;;;;;;;20.20;41.60;;;;;;6058933;29;20261;-58
2023/01/25 07:51:33;;;;;;;;;;;20.00;40.90;;;;;;6011902;29;20377;-58
2023/01/25 07:54:34;;;;;;;;;;;20.20;41.60;;;;;;6059263;29;20308;-58
2023/01/25 07:57:36;;;;;;;;;;;20.00;41.10;;;;;;6058298;29;19930;-59
2023/01/25 08:00:39;;;;;;;;;;;20.50;41.80;;;;;;6057469;29;19928;-57
2023/01/25 08:03:41;;;;;;;;;;;19.60;41.20;;;;;;6041479;29;20276;-59
2023/01/25 08:06:43;;;;;;;;;;;20.10;41.30;;;;;;6041522;29;19924;-58
2023/01/25 08:09:44;;;;;;;;;;;19.60;41.00;;;;;;6057990;29;19927;-59
2023/01/25 08:12:46;;;;;;;;;;;20.30;41.20;;;;;;6058343;29;19928;-57
2023/01/25 08:15:52;;;;;;;;;;;19.80;40.90;;;;;;6057745;29;19924;-59
2023/01/25 08:18:55;;;;;;;;;;;20.40;41.40;;;;;;6060405;29;20410;-56
2023/01/25 08:21:56;;;;;;;;;;;20.30;41.10;;;;;;6044558;29;19930;-58
2023/01/25 08:24:59;;;;;;;;;;;20.30;41.30;;;;;;6059249;29;19999;-59
2023/01/25 08:28:01;;;;;;;;;;;20.00;40.80;;;;;;6066884;29;20015;-57
2023/01/25 08:31:05;;;;;;;;;;;20.20;41.00;;;;;;6061563;29;19914;-59
2023/01/25 08:34:06;;;;;;;;;;;20.00;40.60;;;;;;6059515;29;19924;-61
2023/01/25 08:37:08;;;;;;;;;;;20.40;41.00;;;;;;6057727;29;19928;-59
2023/01/25 08:40:12;;;;;;;;;;;20.20;40.80;;;;;;6059736;29;19999;-61
2023/01/25 08:43:14;;;;;;;;;;;20.30;40.60;;;;;;6058160;29;19924;-62
2023/01/25 08:46:16;;;;;;;;;;;20.40;40.90;;;;;;6057500;29;19967;-62
2023/01/25 08:49:17;;;;;;;;;;;20.30;40.20;;;;;;6057724;29;20387;-59
2023/01/25 08:52:19;;;;;;;;;;;20.30;40.60;;;;;;6057515;29;19972;-59
2023/01/25 08:55:22;;;;;;;;;;;20.50;40.50;;;;;;6057462;29;19924;-59
2023/01/25 08:58:24;;;;;;;;;;;20.20;40.40;;;;;;6064847;29;19924;-59
2023/01/25 09:01:26;;;;;;;;;;;21.10;41.10;;;;;;6058751;29;19975;-64
2023/01/25 09:04:27;;;;;;;;;;;20.30;40.60;;;;;;6058707;29;19976;-60
2023/01/25 09:07:31;;;;;;;;;;;20.70;40.70;;;;;;6057492;29;19967;-59
2023/01/25 09:10:32;;;;;;;;;;;20.40;40.10;;;;;;6057182;29;19924;-59
2023/01/25 09:13:34;;;;;;;;;;;20.60;40.50;;;;;;6058195;29;19924;-60
2023/01/25 09:16:35;;;;;;;;;;;20.70;40.40;;;;;;6056832;29;19927;-59
2023/01/25 09:19:37;;;;;;;;;;;20.70;40.40;;;;;;6059150;29;19975;-61
2023/01/25 09:22:39;;;;;;;;;;;20.80;40.20;;;;;;6061755;29;19923;-60
2023/01/25 09:25:40;;;;;;;;;;;20.90;40.60;;;;;;6063045;29;19923;-60
2023/01/25 09:28:46;;;;;;;;;;;20.50;40.10;;;;;;6059204;29;20026;-57
2023/01/25 09:31:49;;;;;;;;;;;19.00;39.40;;;;;;6057674;29;19924;-60
2023/01/25 09:35:07;;;;;;;;;;;20.30;40.00;;;;;;6071290;29;19943;-60
2023/01/25 09:38:08;;;;;;;;;;;21.30;40.60;;;;;;6063679;29;20397;-60
2023/01/25 09:41:18;;;;;;;;;;;20.70;40.30;;;;;;6061378;29;19911;-60
2023/01/25 09:44:27;;;;;;;;;;;21.00;40.10;;;;;;6060901;29;19931;-59
2023/01/25 09:47:33;;;;;;;;;;;20.90;40.10;;;;;;6056748;29;20029;-61
2023/01/25 09:50:37;;;;;;;;;;;21.30;40.50;;;;;;6056397;29;19976;-61
2023/01/25 09:53:40;;;;;;;;;;;21.10;40.30;;;;;;6039718;29;19924;-60
2023/01/25 09:56:42;;;;;;;;;;;20.90;39.80;;;;;;6056790;29;20383;-60
2023/01/25 09:59:46;;;;;;;;;;;20.90;40.10;;;;;;6055912;29;19979;-61
2023/01/25 10:02:52;;;;;;;;;;;21.10;40.10;;;;;;6056003;29;19963;-60
2023/01/25 10:05:56;;;;;;;;;;;21.00;40.00;;;;;;6039780;29;20324;-61
2023/01/25 10:09:02;;;;;;;;;;;21.50;40.30;;;;;;6056119;29;19923;-61
2023/01/25 10:12:11;;;;;;;;;;;20.70;39.90;;;;;;6059112;29;20234;-62
2023/01/25 10:15:17;;;;;;;;;;;21.50;40.30;;;;;;6060782;29;19963;-61
2023/01/25 10:18:22;;;;;;;;;;;20.60;39.90;;;;;;6043760;29;20456;-60
2023/01/25 10:21:32;;;;;;;;;;;21.10;40.10;;;;;;6060130;29;19924;-58
2023/01/25 10:24:40;;;;;;;;;;;20.80;39.80;;;;;;6044937;29;19924;-56
2023/01/25 10:27:45;;;;;;;;;;;21.10;40.40;;;;;;6062097;29;20284;-52
2023/01/25 10:30:52;;;;;;;;;;;20.90;40.20;;;;;;6060311;29;19923;-55
2023/01/25 10:33:55;;;;;;;;;;;21.10;40.30;;;;;;6060593;29;20292;-53
2023/01/25 10:37:01;;;;;;;;;;;21.10;40.30;;;;;;6066286;29;19923;-53
2023/01/25 10:40:03;;;;;;;;;;;21.10;40.20;;;;;;6060226;29;20300;-52
2023/01/25 10:43:07;;;;;;;;;;;20.80;39.90;;;;;;6059899;29;19932;-54
2023/01/25 10:46:16;;;;;;;;;;;21.70;40.50;;;;;;6059381;29;19951;-51
2023/01/25 10:49:22;;;;;;;;;;;20.60;39.80;;;;;;6059590;29;19930;-53
2023/01/25 10:52:25;;;;;;;;;;;20.90;40.00;;;;;;6042915;29;20348;-55
2023/01/25 10:55:27;;;;;;;;;;;20.90;40.00;;;;;;6059773;29;19955;-54
2023/01/25 10:58:29;;;;;;;;;;;21.10;40.10;;;;;;6059542;29;20329;-53
2023/01/25 11:01:32;;;;;;;;;;;21.00;40.00;;;;;;6042948;29;19971;-56
2023/01/25 11:04:37;;;;;;;;;;;21.60;40.30;;;;;;6060330;29;19986;-55
2023/01/25 11:07:38;;;;;;;;;;;20.90;40.10;;;;;;6059738;29;19924;-52
2023/01/25 11:10:41;;;;;;;;;;;21.40;40.20;;;;;;6059173;29;19931;-51
2023/01/25 11:13:42;;;;;;;;;;;21.00;40.10;;;;;;6059841;29;20361;-53
2023/01/25 11:16:45;;;;;;;;;;;21.10;40.00;;;;;;6060505;29;19931;-55
2023/01/25 11:19:47;;;;;;;;;;;21.30;40.10;;;;;;6043702;29;19940;-55
2023/01/25 11:22:50;;;;;;;;;;;21.50;40.10;;;;;;6059385;29;19924;-56
2023/01/25 11:25:51;;;;;;;;;;;21.40;40.00;;;;;;6059303;29;19924;-56
2023/01/25 11:29:06;;;;;;;;;;;22.00;40.40;;;;;;6060171;29;19923;-55
2023/01/25 11:32:15;;;;;;;;;;;21.00;39.90;;;;;;6063338;29;19934;-53
2023/01/25 11:35:24;;;;;;;;;;;21.80;40.00;;;;;;6054586;29;19935;-49
2023/01/25 11:38:26;;;;;;;;;;;20.90;39.60;;;;;;6070860;29;19992;-53
2023/01/25 11:41:33;;;;;;;;;;;21.30;40.00;;;;;;6069798;29;19924;-52
2023/01/25 11:44:47;;;;;;;;;;;21.00;39.70;;;;;;6069935;29;19923;-52
2023/01/25 11:47:54;;;;;;;;;;;21.60;40.00;;;;;;6068730;29;19927;-51
2023/01/25 11:51:01;;;;;;;;;;;21.20;39.80;;;;;;6052038;29;19948;-50
2023/01/25 11:54:06;;;;;;;;;;;21.60;40.20;;;;;;6053644;29;19923;-50
2023/01/25 11:57:13;;;;;;;;;;;21.40;40.00;;;;;;6069933;29;19931;-50
2023/01/25 12:00:21;;;;;;;;;;;21.50;40.10;;;;;;6068193;29;19924;-54
2023/01/25 12:03:37;;;;;;;;;;;21.40;40.00;;;;;;6067264;29;20399;-54
2023/01/25 12:06:47;;;;;;;;;;;21.70;40.20;;;;;;6066103;29;19992;-52
2023/01/25 12:09:59;;;;;;;;;;;21.40;40.00;;;;;;6067144;29;19931;-52
2023/01/25 12:13:04;;;;;;;;;;;21.40;40.00;;;;;;6066765;29;19924;-51
2023/01/25 12:16:14;;;;;;;;;;;21.40;40.20;;;;;;6067631;29;19935;-52
2023/01/25 12:19:23;;;;;;;;;;;21.80;40.30;;;;;;6067450;29;19934;-49
2023/01/25 12:22:38;;;;;;;;;;;21.40;39.90;;;;;;6068912;29;20405;-53
2023/01/25 12:25:45;;;;;;;;;;;21.40;39.80;;;;;;6068727;29;19947;-52
2023/01/25 12:28:49;;;;;;;;;;;21.30;40.00;;;;;;6067839;29;19924;-51
2023/01/25 12:31:54;;;;;;;;;;;21.50;39.30;;;;;;6066068;29;19976;-50
2023/01/25 12:35:01;;;;;;;;;;;21.30;40.00;;;;;;6066064;29;19956;-53
2023/01/25 12:38:04;;;;;;;;;;;21.50;39.90;;;;;;6071962;29;19946;-53
2023/01/25 12:41:13;;;;;;;;;;;21.20;40.00;;;;;;6080151;29;19927;-54
2023/01/25 12:44:19;;;;;;;;;;;21.50;37.30;;;;;;6077742;29;19934;-52
2023/01/25 12:47:24;;;;;;;;;;;21.40;40.00;;;;;;6083806;29;19911;-53
2023/01/25 12:50:29;;;;;;;;;;;21.50;40.20;;;;;;6085729;29;19931;-50
2023/01/25 12:53:34;;;;;;;;;;;21.20;40.10;;;;;;6059204;29;19912;-55
2023/01/25 12:56:42;;;;;;;;;;;21.30;40.10;;;;;;6117948;23;19924;-56
2023/01/25 12:59:49;;;;;;;;;;;21.30;39.90;;;;;;6062228;29;19927;-54
2023/01/25 13:02:59;;;;;;;;;;;21.90;40.20;;;;;;6053382;29;19919;-54
2023/01/25 13:06:05;;;;;;;;;;;21.40;40.00;;;;;;6053996;29;19924;-52
2023/01/25 13:09:13;;;;;;;;;;;21.70;40.10;;;;;;6056540;29;19931;-55
2023/01/25 13:12:15;;;;;;;;;;;21.20;39.80;;;;;;6049521;29;20314;-55
2023/01/25 13:15:32;;;;;;;;;;;21.60;40.40;;;;;;6045310;29;19930;-57
2023/01/25 13:18:41;;;;;;;;;;;21.30;39.80;;;;;;6049966;29;19931;-55
2023/01/25 13:21:44;;;;;;;;;;;21.60;40.10;;;;;;6057985;29;19923;-58
2023/01/25 13:24:57;;;;;;;;;;;21.20;39.80;;;;;;6049302;29;20357;-57
2023/01/25 13:28:13;;;;;;;;;;;21.70;40.10;;;;;;6051001;29;19931;-59
2023/01/25 13:31:29;;;;;;;;;;;21.30;39.70;;;;;;6041608;29;19928;-56
2023/01/25 13:34:55;;;;;;;;;;;21.40;39.80;;;;;;6035112;29;19928;-55
2023/01/25 13:37:59;;;;;;;;;;;21.20;39.70;;;;;;6025176;29;20261;-57
2023/01/25 13:41:09;;;;;;;;;;;21.40;39.50;;;;;;6028149;29;19924;-57
2023/01/25 13:44:20;;;;;;;;;;;21.50;39.70;;;;;;6023321;29;19931;-54
2023/01/25 13:47:22;;;;;;;;;;;21.60;39.90;;;;;;6041957;29;19932;-55
2023/01/25 13:50:25;;;;;;;;;;;21.30;39.80;;;;;;6021553;29;19924;-55
2023/01/25 13:53:28;;;;;;;;;;;21.10;39.50;;;;;;6034231;29;19924;-57
2023/01/25 13:56:31;;;;;;;;;;;21.40;39.90;;;;;;6037570;29;19924;-56
2023/01/25 13:59:33;;;;;;;;;;;21.70;39.90;;;;;;6017136;29;19931;-58
2023/01/25 14:02:34;;;;;;;;;;;21.60;40.00;;;;;;6016748;29;19980;-52
2023/01/25 14:05:36;;;;;;;;;;;21.90;40.00;;;;;;6033179;29;19927;-55
2023/01/25 14:08:38;;;;;;;;;;;21.10;39.60;;;;;;6032847;29;20299;-57
2023/01/25 14:11:43;;;;;;;;;;;21.60;39.80;;;;;;6032913;29;19992;-56
2023/01/25 14:14:48;;;;;;;;;;;21.40;39.60;;;;;;6033333;29;19931;-54
2023/01/25 14:18:05;;;;;;;;;;;21.50;40.00;;;;;;6032821;29;19924;-56
2023/01/25 14:21:12;;;;;;;;;;;21.20;39.60;;;;;;6015949;29;19967;-52
2023/01/25 14:24:15;;;;;;;;;;;21.40;39.90;;;;;;6032962;29;19931;-56
2023/01/25 14:27:17;;;;;;;;;;;20.90;39.70;;;;;;6016240;29;19927;-56
2023/01/25 14:30:20;;;;;;;;;;;21.70;40.20;;;;;;6032785;29;19924;-55
2023/01/25 14:33:25;;;;;;;;;;;21.30;39.80;;;;;;6016155;29;19924;-56
2023/01/25 14:36:27;;;;;;;;;;;21.50;40.00;;;;;;6033127;29;19924;-53
2023/01/25 14:39:29;;;;;;;;;;;20.90;39.80;;;;;;6033121;29;19924;-55
2023/01/25 14:42:31;;;;;;;;;;;21.20;40.00;;;;;;6032636;29;19924;-52
2023/01/25 14:45:33;;;;;;;;;;;21.30;40.00;;;;;;6032729;29;19924;-53
2023/01/25 14:48:36;;;;;;;;;;;21.80;40.40;;;;;;6033462;29;19976;-53
2023/01/25 14:51:40;;;;;;;;;;;21.10;40.00;;;;;;6015944;29;19931;-52
2023/01/25 14:54:44;;;;;;;;;;;21.20;40.00;;;;;;6032326;29;19976;-54
2023/01/25 14:57:48;;;;;;;;;;;21.30;40.00;;;;;;6035425;29;19924;-54
2023/01/25 15:00:51;;;;;;;;;;;21.20;40.00;;;;;;6037004;29;19931;-53
2023/01/25 15:03:54;;;;;;;;;;;21.40;40.40;;;;;;6036378;29;19928;-53
2023/01/25 15:06:55;;;;;;;;;;;21.30;40.20;;;;;;6036703;29;19959;-51
2023/01/25 15:10:13;;;;;;;;;;;20.80;39.80;;;;;;6020682;29;19924;-55
2023/01/25 15:13:19;;;;;;;;;;;21.70;40.30;;;;;;6036094;29;19928;-54
2023/01/25 15:16:31;;;;;;;;;;;21.10;40.00;;;;;;6036465;29;19931;-53
2023/01/25 15:19:34;;;;;;;;;;;21.20;40.10;;;;;;6036468;29;19931;-52
2023/01/25 15:22:35;;;;;;;;;;;20.90;39.90;;;;;;6019363;29;19984;-54
2023/01/25 15:25:47;;;;;;;;;;;21.70;40.50;;;;;;6036332;29;19927;-52
2023/01/25 15:28:49;;;;;;;;;;;20.80;39.90;;;;;;6035840;29;19924;-52
2023/01/25 15:31:50;;;;;;;;;;;21.30;39.90;;;;;;6019227;29;19940;-52
2023/01/25 15:34:53;;;;;;;;;;;20.90;39.80;;;;;;6036024;29;20006;-52
2023/01/25 15:37:54;;;;;;;;;;;21.30;40.40;;;;;;6036107;29;19935;-53
2023/01/25 15:41:00;;;;;;;;;;;21.10;40.20;;;;;;6035591;29;19924;-51
2023/01/25 15:44:01;;;;;;;;;;;21.20;40.00;;;;;;6035920;29;20369;-53
2023/01/25 15:47:03;;;;;;;;;;;21.20;40.10;;;;;;6036147;29;19923;-52
2023/01/25 15:50:04;;;;;;;;;;;21.60;40.60;;;;;;6036757;29;19947;-53
2023/01/25 15:53:06;;;;;;;;;;;21.00;40.00;;;;;;6003869;29;19963;-53
2023/01/25 15:56:11;;;;;;;;;;;21.50;40.40;;;;;;6035851;29;20015;-54
2023/01/25 15:59:14;;;;;;;;;;;21.20;40.30;;;;;;6035415;29;19928;-53
2023/01/25 16:02:15;;;;;;;;;;;21.60;40.50;;;;;;6018590;29;19925;-51
2023/01/25 16:05:17;;;;;;;;;;;20.80;40.00;;;;;;6035357;29;19924;-54
2023/01/25 16:08:19;;;;;;;;;;;21.00;40.20;;;;;;6035541;29;19931;-53
2023/01/25 16:11:22;;;;;;;;;;;20.80;39.90;;;;;;6019303;29;19959;-54
2023/01/25 16:14:27;;;;;;;;;;;21.60;40.60;;;;;;6035609;29;20266;-53
2023/01/25 16:17:30;;;;;;;;;;;20.90;40.00;;;;;;6035031;29;19931;-54
2023/01/25 16:20:31;;;;;;;;;;;21.30;40.20;;;;;;6035775;29;19931;-55
2023/01/25 16:23:33;;;;;;;;;;;21.10;40.00;;;;;;6019240;29;20357;-55
2023/01/25 16:26:36;;;;;;;;;;;21.40;40.40;;;;;;6034949;29;20064;-56
2023/01/25 16:29:37;;;;;;;;;;;21.10;40.10;;;;;;6034980;29;19931;-56
2023/01/25 16:32:39;;;;;;;;;;;21.30;40.40;;;;;;6035365;29;19930;-50
2023/01/25 16:35:40;;;;;;;;;;;20.70;39.80;;;;;;6034988;29;19924;-53
2023/01/25 16:38:41;;;;;;;;;;;21.40;40.50;;;;;;6035586;29;19959;-53
2023/01/25 16:41:46;;;;;;;;;;;20.90;40.10;;;;;;6035004;29;19950;-52
2023/01/25 16:44:47;;;;;;;;;;;21.30;40.40;;;;;;6018399;29;19924;-54
2023/01/25 16:47:49;;;;;;;;;;;20.90;39.80;;;;;;6039287;29;19924;-56
2023/01/25 16:50:50;;;;;;;;;;;21.40;40.30;;;;;;6029067;29;19924;-52
2023/01/25 16:53:54;;;;;;;;;;;21.10;40.00;;;;;;6035522;29;19931;-56
2023/01/25 16:56:56;;;;;;;;;;;21.10;40.00;;;;;;6036639;29;20222;-56
2023/01/25 16:59:57;;;;;;;;;;;21.10;40.50;;;;;;6034888;29;20309;-56
2023/01/25 17:02:58;;;;;;;;;;;21.70;40.90;;;;;;6037848;29;20373;-54
2023/01/25 17:06:00;;;;;;;;;;;20.80;40.30;;;;;;6038264;29;19959;-54
2023/01/25 17:09:06;;;;;;;;;;;21.70;40.70;;;;;;6037728;29;19931;-56
2023/01/25 17:12:23;;;;;;;;;;;21.20;40.40;;;;;;6020298;29;20441;-56
2023/01/25 17:15:25;;;;;;;;;;;21.60;40.70;;;;;;6018037;29;19924;-56
2023/01/25 17:18:26;;;;;;;;;;;21.10;40.20;;;;;;6035336;29;20363;-58
2023/01/25 17:21:27;;;;;;;;;;;21.50;40.30;;;;;;6034880;29;20364;-52
2023/01/25 17:24:29;;;;;;;;;;;20.90;39.80;;;;;;6034987;29;19924;-53
2023/01/25 17:27:31;;;;;;;;;;;21.40;40.30;;;;;;6035744;29;19947;-52
2023/01/25 17:30:32;;;;;;;;;;;20.90;39.90;;;;;;6034442;29;19931;-56
2023/01/25 17:33:33;;;;;;;;;;;21.60;40.40;;;;;;6034682;29;20372;-54
2023/01/25 17:36:35;;;;;;;;;;;21.40;40.20;;;;;;6036550;29;19932;-56
2023/01/25 17:39:37;;;;;;;;;;;21.70;40.50;;;;;;6034272;29;20311;-54
2023/01/25 17:42:38;;;;;;;;;;;21.20;40.00;;;;;;6033878;29;19973;-54
2023/01/25 17:45:40;;;;;;;;;;;21.50;40.30;;;;;;6033716;29;19931;-54
2023/01/25 17:48:41;;;;;;;;;;;21.10;40.10;;;;;;6033907;29;19924;-52
2023/01/25 17:51:43;;;;;;;;;;;21.50;40.40;;;;;;6033487;29;19947;-55
2023/01/25 17:54:44;;;;;;;;;;;21.40;40.30;;;;;;6034069;29;20289;-51
2023/01/25 17:57:46;;;;;;;;;;;21.40;40.30;;;;;;6034131;29;19928;-53
2023/01/25 18:00:47;;;;;;;;;;;20.90;40.10;;;;;;6033705;29;19924;-53
2023/01/25 18:03:50;;;;;;;;;;;21.80;40.70;;;;;;6033868;29;20423;-54
2023/01/25 18:06:51;;;;;;;;;;;20.90;40.10;;;;;;6017652;29;19925;-54
2023/01/25 18:09:53;;;;;;;;;;;21.30;40.40;;;;;;6033615;29;19948;-57
2023/01/25 18:12:55;;;;;;;;;;;20.80;39.70;;;;;;6033433;29;19924;-54
2023/01/25 18:16:06;;;;;;;;;;;21.20;40.50;;;;;;6033620;29;19959;-54
2023/01/25 18:19:08;;;;;;;;;;;21.00;40.40;;;;;;6033200;29;19923;-54
2023/01/25 18:22:10;;;;;;;;;;;21.10;40.50;;;;;;6017503;29;20393;-53
2023/01/25 18:25:29;;;;;;;;;;;20.80;40.30;;;;;;6033664;29;19924;-55
2023/01/25 18:28:31;;;;;;;;;;;21.70;41.30;;;;;;6033047;29;19931;-55
2023/01/25 18:31:32;;;;;;;;;;;20.90;40.50;;;;;;6034157;29;19924;-54
2023/01/25 18:34:34;;;;;;;;;;;20.90;40.40;;;;;;6037487;29;20350;-54
2023/01/25 18:37:42;;;;;;;;;;;20.90;40.60;;;;;;6037352;29;19928;-54
2023/01/25 18:40:43;;;;;;;;;;;21.30;40.90;;;;;;6037320;29;19969;-53